Broadway, OH (43007)

8:02 AM EDT on August 25, 2016 (GMT -0400)
Taylor Twp | | Change Station

Elev 1020 ft 40.35 °N, 83.42 °W | Updated 14 minutes ago

Clear
Clear
73.0 °F
Feels Like 73.0 °F
N
0.0
Wind Variable Wind from WSW

Today
High -- | Low -- °F
--% Chance of Precip.
Yesterday
High -- | Low -- °F
Precip. -- in
Pressure 30.09 in
Visibility 7.0 miles
Clouds Clear
Dew Point 72 °F
Humidity 96%
Rainfall 0.36 in
Snow Depth Not available.
6:54 AM 8:15 PM
Last Quarter, 46% visible
METAR KMRT 251153Z AUTO 27005KT 7SM CLR 23/23 A3009 RMK AO2 70012 T02330231 10233 20211
Pressure 30.09 in
Visibility 7.0 miles
Clouds Clear
Dew Point 72 °F
Humidity 96%
Rainfall 0.36 in
Snow Depth Not available.
6:54 AM 8:15 PM
Last Quarter, 46% visible
METAR KMRT 251153Z AUTO 27005KT 7SM CLR 23/23 A3009 RMK AO2 70012 T02330231 10233 20211

10-Day Weather Forecast

Almanac

Astronomy

Aug. 25, 2016 Rise Set
Actual Time
Civil Twilight
Nautical Twilight
Astronomical Twilight
Moon
Length of Visible Light
Length of Day
Tomorrow will be .
, % of the Moon is Illuminated

Today's Extremes

State Highs State Lows

Community

WunderPhotos

Upload Photos

1,934,823 photos uploaded!

WunderBlog® & News

Nearby

Air Quality

  Air Quality AQ Index Pollutant
Not available.

Snow Depth

Station Depth Elevation

Earthquake Activity

City Distance Mag. Time & Date
Minimum magnitude displayed is 2.5.

Coastal Water Temperatures

Place Temperature

Stations

Nearby Weather Stations

Station Location Temp. Windchill Dew Point Humidity Wind Precip. Elev Updated Type
                   

Watches & Warnings

There are currently no watches in effect.